Aviation Digital Data Service (ADDS)

Output produced by TAFs form (1729 UTC 25 February 2018)
found at http://www.aviationweather.gov/adds/tafs/
 
KTYS 251653Z 27010KT 10SM SCT120 OVC250 13/10 A3013 RMK AO2 SLP197 T01330106 $
KTYS 251314Z 2513/2612 25010KT P6SM -RA OVC030 
     TEMPO 2513/2514 2SM RA 
     FM251700 24009KT P6SM BKN035 
     FM260600 36004KT P6SM VCSH OVC030 
     FM260900 01006KT 4SM -RA BR OVC020